sensor_id;sensor_type;location;lat;lon;timestamp;pressure;altitude;pressure_sealevel;temperature
78961;BMP280;68362;45.970;12.646;2023-07-13T00:00:34;101138.66;;;21.17
78961;BMP280;68362;45.970;12.646;2023-07-13T00:01:58;101084.13;;;20.99
78961;BMP280;68362;45.970;12.646;2023-07-13T00:03:00;101016.06;;;20.73
78961;BMP280;68362;45.970;12.646;2023-07-13T00:04:02;100978.59;;;19.96
78961;BMP280;68362;45.970;12.646;2023-07-13T00:15:34;101036.56;;;18.85
78961;BMP280;68362;45.970;12.646;2023-07-13T00:16:39;101025.91;;;19.00
78961;BMP280;68362;45.970;12.646;2023-07-13T00:17:43;101017.63;;;19.07
78961;BMP280;68362;45.970;12.646;2023-07-13T00:18:48;101000.09;;;19.11
78961;BMP280;68362;45.970;12.646;2023-07-13T00:19:50;100985.03;;;18.55
78961;BMP280;68362;45.970;12.646;2023-07-13T00:20:52;100985.53;;;18.37
78961;BMP280;68362;45.970;12.646;2023-07-13T00:21:54;100986.03;;;18.85
78961;BMP280;68362;45.970;12.646;2023-07-13T00:22:57;100994.00;;;18.85
78961;BMP280;68362;45.970;12.646;2023-07-13T00:24:00;100982.34;;;18.30
78961;BMP280;68362;45.970;12.646;2023-07-13T00:25:03;100977.53;;;18.73
78961;BMP280;68362;45.970;12.646;2023-07-13T00:26:08;100982.25;;;19.06
78961;BMP280;68362;45.970;12.646;2023-07-13T00:27:11;100984.88;;;19.16
78961;BMP280;68362;45.970;12.646;2023-07-13T00:28:14;100977.41;;;19.13
78961;BMP280;68362;45.970;12.646;2023-07-13T00:29:16;100965.66;;;19.35
78961;BMP280;68362;45.970;12.646;2023-07-13T00:30:18;100971.22;;;19.33
78961;BMP280;68362;45.970;12.646;2023-07-13T00:31:20;100984.06;;;19.21
78961;BMP280;68362;45.970;12.646;2023-07-13T00:32:24;100977.94;;;19.26
78961;BMP280;68362;45.970;12.646;2023-07-13T00:33:29;100986.88;;;19.50
78961;BMP280;68362;45.970;12.646;2023-07-13T00:34:32;101000.91;;;19.66
78961;BMP280;68362;45.970;12.646;2023-07-13T00:35:34;101010.16;;;19.78
78961;BMP280;68362;45.970;12.646;2023-07-13T00:36:36;101017.31;;;19.83
78961;BMP280;68362;45.970;12.646;2023-07-13T00:37:39;101020.69;;;19.94
78961;BMP280;68362;45.970;12.646;2023-07-13T00:38:41;101031.34;;;19.99
78961;BMP280;68362;45.970;12.646;2023-07-13T00:39:44;101023.56;;;20.07
78961;BMP280;68362;45.970;12.646;2023-07-13T00:40:45;101030.66;;;20.22
78961;BMP280;68362;45.970;12.646;2023-07-13T00:41:48;101012.59;;;20.14
78961;BMP280;68362;45.970;12.646;2023-07-13T00:42:52;101009.88;;;19.80
78961;BMP280;68362;45.970;12.646;2023-07-13T00:43:54;101013.31;;;20.20
78961;BMP280;68362;45.970;12.646;2023-07-13T00:45:04;101022.53;;;20.37
78961;BMP280;68362;45.970;12.646;2023-07-13T00:46:28;101023.75;;;19.77
78961;BMP280;68362;45.970;12.646;2023-07-13T00:47:31;101013.75;;;19.48
78961;BMP280;68362;45.970;12.646;2023-07-13T00:48:34;101014.84;;;19.92
78961;BMP280;68362;45.970;12.646;2023-07-13T00:49:38;101017.94;;;20.09
78961;BMP280;68362;45.970;12.646;2023-07-13T00:50:41;101018.38;;;20.21
78961;BMP280;68362;45.970;12.646;2023-07-13T00:51:46;101025.31;;;20.22
78961;BMP280;68362;45.970;12.646;2023-07-13T00:52:52;101019.81;;;20.42
78961;BMP280;68362;45.970;12.646;2023-07-13T00:53:57;101030.63;;;20.56
78961;BMP280;68362;45.970;12.646;2023-07-13T00:55:01;101039.41;;;20.57
78961;BMP280;68362;45.970;12.646;2023-07-13T00:56:03;101056.59;;;20.46
78961;BMP280;68362;45.970;12.646;2023-07-13T00:57:09;101093.31;;;20.54
78961;BMP280;68362;45.970;12.646;2023-07-13T00:58:12;101138.69;;;20.09
78961;BMP280;68362;45.970;12.646;2023-07-13T00:59:15;101192.00;;;20.09
78961;BMP280;68362;45.970;12.646;2023-07-13T01:00:19;101244.63;;;19.68
78961;BMP280;68362;45.970;12.646;2023-07-13T01:01:23;101278.75;;;19.61
78961;BMP280;68362;45.970;12.646;2023-07-13T01:02:27;101281.41;;;19.41
78961;BMP280;68362;45.970;12.646;2023-07-13T01:03:30;101276.63;;;19.28
78961;BMP280;68362;45.970;12.646;2023-07-13T01:04:32;101271.03;;;19.39
78961;BMP280;68362;45.970;12.646;2023-07-13T01:05:35;101255.31;;;19.28
78961;BMP280;68362;45.970;12.646;2023-07-13T01:06:39;101249.44;;;19.31
78961;BMP280;68362;45.970;12.646;2023-07-13T01:07:43;101144.03;;;19.35
78961;BMP280;68362;45.970;12.646;2023-07-13T01:08:45;101110.50;;;19.13
78961;BMP280;68362;45.970;12.646;2023-07-13T01:09:48;101190.63;;;19.07
78961;BMP280;68362;45.970;12.646;2023-07-13T01:10:52;101197.81;;;19.11
78961;BMP280;68362;45.970;12.646;2023-07-13T01:11:54;101169.03;;;19.13
78961;BMP280;68362;45.970;12.646;2023-07-13T01:12:56;101124.59;;;19.29
78961;BMP280;68362;45.970;12.646;2023-07-13T01:13:58;101096.13;;;19.19
78961;BMP280;68362;45.970;12.646;2023-07-13T01:15:01;101091.28;;;19.37
78961;BMP280;68362;45.970;12.646;2023-07-13T01:16:13;101096.34;;;19.38
78961;BMP280;68362;45.970;12.646;2023-07-13T01:17:16;101070.88;;;19.07
78961;BMP280;68362;45.970;12.646;2023-07-13T01:18:22;101026.88;;;19.24
78961;BMP280;68362;45.970;12.646;2023-07-13T01:19:35;100992.81;;;19.32
78961;BMP280;68362;45.970;12.646;2023-07-13T01:20:39;100969.78;;;19.56
78961;BMP280;68362;45.970;12.646;2023-07-13T01:21:41;100963.91;;;19.59
78961;BMP280;68362;45.970;12.646;2023-07-13T01:22:44;100948.38;;;19.22
78961;BMP280;68362;45.970;12.646;2023-07-13T01:23:46;100940.06;;;19.39
78961;BMP280;68362;45.970;12.646;2023-07-13T01:24:49;100939.59;;;19.21
78961;BMP280;68362;45.970;12.646;2023-07-13T01:25:52;100949.16;;;19.28
78961;BMP280;68362;45.970;12.646;2023-07-13T01:26:54;100953.47;;;19.18
78961;BMP280;68362;45.970;12.646;2023-07-13T01:27:56;100961.13;;;19.25
78961;BMP280;68362;45.970;12.646;2023-07-13T01:28:59;100956.94;;;19.14
78961;BMP280;68362;45.970;12.646;2023-07-13T01:30:01;100960.66;;;19.13
78961;BMP280;68362;45.970;12.646;2023-07-13T01:31:06;100958.84;;;18.98
78961;BMP280;68362;45.970;12.646;2023-07-13T01:32:13;100972.69;;;18.90
78961;BMP280;68362;45.970;12.646;2023-07-13T01:33:17;100971.34;;;19.03
78961;BMP280;68362;45.970;12.646;2023-07-13T01:34:19;100984.34;;;19.14
78961;BMP280;68362;45.970;12.646;2023-07-13T01:35:22;100995.50;;;19.21
78961;BMP280;68362;45.970;12.646;2023-07-13T01:36:24;101011.00;;;18.94
78961;BMP280;68362;45.970;12.646;2023-07-13T01:37:26;100997.72;;;18.84
78961;BMP280;68362;45.970;12.646;2023-07-13T01:38:29;100996.91;;;18.93
78961;BMP280;68362;45.970;12.646;2023-07-13T01:39:31;100973.00;;;18.83
78961;BMP280;68362;45.970;12.646;2023-07-13T01:40:34;100962.59;;;18.87
78961;BMP280;68362;45.970;12.646;2023-07-13T01:41:37;100950.94;;;18.62
78961;BMP280;68362;45.970;12.646;2023-07-13T01:42:39;100947.50;;;18.67
78961;BMP280;68362;45.970;12.646;2023-07-13T01:43:42;100933.13;;;18.58
78961;BMP280;68362;45.970;12.646;2023-07-13T01:44:44;100914.78;;;18.77
78961;BMP280;68362;45.970;12.646;2023-07-13T01:45:46;100907.81;;;18.86
78961;BMP280;68362;45.970;12.646;2023-07-13T01:46:49;100909.22;;;18.68
78961;BMP280;68362;45.970;12.646;2023-07-13T01:47:51;100911.06;;;18.62
78961;BMP280;68362;45.970;12.646;2023-07-13T01:48:53;100929.69;;;18.68
78961;BMP280;68362;45.970;12.646;2023-07-13T01:49:55;100946.13;;;18.70
78961;BMP280;68362;45.970;12.646;2023-07-13T01:50:57;100957.38;;;18.56
78961;BMP280;68362;45.970;12.646;2023-07-13T01:51:59;100962.13;;;18.49
78961;BMP280;68362;45.970;12.646;2023-07-13T01:53:02;100955.47;;;18.62
78961;BMP280;68362;45.970;12.646;2023-07-13T01:54:04;100958.41;;;18.60
78961;BMP280;68362;45.970;12.646;2023-07-13T01:55:07;100969.03;;;18.65
78961;BMP280;68362;45.970;12.646;2023-07-13T01:56:09;100969.50;;;18.93
78961;BMP280;68362;45.970;12.646;2023-07-13T01:57:12;100970.06;;;18.70
78961;BMP280;68362;45.970;12.646;2023-07-13T01:58:14;100961.75;;;19.07
78961;BMP280;68362;45.970;12.646;2023-07-13T01:59:16;100959.28;;;19.26
78961;BMP280;68362;45.970;12.646;2023-07-13T02:00:18;100965.66;;;19.30
78961;BMP280;68362;45.970;12.646;2023-07-13T02:01:20;100954.56;;;19.12
78961;BMP280;68362;45.970;12.646;2023-07-13T02:02:23;100964.75;;;18.80
78961;BMP280;68362;45.970;12.646;2023-07-13T02:03:25;100958.34;;;18.91
78961;BMP280;68362;45.970;12.646;2023-07-13T02:04:27;100973.72;;;19.09
78961;BMP280;68362;45.970;12.646;2023-07-13T02:05:29;100971.44;;;19.47
78961;BMP280;68362;45.970;12.646;2023-07-13T02:06:31;100975.25;;;19.75
78961;BMP280;68362;45.970;12.646;2023-07-13T02:07:34;100970.06;;;19.94
78961;BMP280;68362;45.970;12.646;2023-07-13T02:08:36;100968.19;;;19.99
78961;BMP280;68362;45.970;12.646;2023-07-13T02:09:39;100967.63;;;20.02
78961;BMP280;68362;45.970;12.646;2023-07-13T02:10:41;100969.94;;;20.09
78961;BMP280;68362;45.970;12.646;2023-07-13T02:11:43;100967.50;;;20.12
78961;BMP280;68362;45.970;12.646;2023-07-13T02:12:45;100967.94;;;19.96
78961;BMP280;68362;45.970;12.646;2023-07-13T02:13:47;100962.06;;;19.99
78961;BMP280;68362;45.970;12.646;2023-07-13T02:14:50;100956.81;;;20.23
78961;BMP280;68362;45.970;12.646;2023-07-13T02:15:52;100944.22;;;20.28
78961;BMP280;68362;45.970;12.646;2023-07-13T02:16:54;100954.75;;;20.38
78961;BMP280;68362;45.970;12.646;2023-07-13T02:17:56;100968.63;;;20.40
78961;BMP280;68362;45.970;12.646;2023-07-13T02:19:00;100980.47;;;20.24
78961;BMP280;68362;45.970;12.646;2023-07-13T02:20:03;100986.25;;;20.07
78961;BMP280;68362;45.970;12.646;2023-07-13T02:21:07;100982.31;;;20.34
78961;BMP280;68362;45.970;12.646;2023-07-13T02:22:09;100978.31;;;20.31
78961;BMP280;68362;45.970;12.646;2023-07-13T02:23:11;100976.56;;;20.46
78961;BMP280;68362;45.970;12.646;2023-07-13T02:24:14;100977.22;;;20.32
78961;BMP280;68362;45.970;12.646;2023-07-13T02:25:19;100978.84;;;19.99
78961;BMP280;68362;45.970;12.646;2023-07-13T02:26:21;100973.06;;;19.87
78961;BMP280;68362;45.970;12.646;2023-07-13T02:27:23;100980.84;;;20.12
78961;BMP280;68362;45.970;12.646;2023-07-13T02:28:26;100976.19;;;20.28
78961;BMP280;68362;45.970;12.646;2023-07-13T02:29:28;100972.38;;;20.39
78961;BMP280;68362;45.970;12.646;2023-07-13T02:30:30;100978.59;;;20.54
78961;BMP280;68362;45.970;12.646;2023-07-13T02:31:32;100979.09;;;20.61
78961;BMP280;68362;45.970;12.646;2023-07-13T02:32:35;100982.91;;;20.50
78961;BMP280;68362;45.970;12.646;2023-07-13T02:33:37;100979.50;;;20.49
78961;BMP280;68362;45.970;12.646;2023-07-13T02:34:40;100977.13;;;20.42
78961;BMP280;68362;45.970;12.646;2023-07-13T02:35:42;100980.66;;;20.04
78961;BMP280;68362;45.970;12.646;2023-07-13T02:36:45;100985.56;;;19.87
78961;BMP280;68362;45.970;12.646;2023-07-13T02:37:47;100990.13;;;20.20
78961;BMP280;68362;45.970;12.646;2023-07-13T02:38:50;100987.09;;;20.32
78961;BMP280;68362;45.970;12.646;2023-07-13T02:39:52;100984.28;;;20.47
78961;BMP280;68362;45.970;12.646;2023-07-13T02:40:54;100989.03;;;20.21
78961;BMP280;68362;45.970;12.646;2023-07-13T02:41:56;100990.00;;;20.35
78961;BMP280;68362;45.970;12.646;2023-07-13T02:42:59;100985.00;;;20.58
78961;BMP280;68362;45.970;12.646;2023-07-13T02:44:02;100979.53;;;20.68
78961;BMP280;68362;45.970;12.646;2023-07-13T02:45:07;100985.34;;;20.75
78961;BMP280;68362;45.970;12.646;2023-07-13T02:46:09;100985.56;;;20.55
78961;BMP280;68362;45.970;12.646;2023-07-13T02:47:12;100989.41;;;20.38
78961;BMP280;68362;45.970;12.646;2023-07-13T02:48:15;100987.88;;;20.32
78961;BMP280;68362;45.970;12.646;2023-07-13T02:49:17;100980.38;;;20.39
78961;BMP280;68362;45.970;12.646;2023-07-13T02:50:19;100980.78;;;20.52
78961;BMP280;68362;45.970;12.646;2023-07-13T02:51:21;100976.75;;;20.54
78961;BMP280;68362;45.970;12.646;2023-07-13T02:52:24;100967.31;;;20.67
78961;BMP280;68362;45.970;12.646;2023-07-13T02:53:26;100966.50;;;20.66
78961;BMP280;68362;45.970;12.646;2023-07-13T02:54:28;100963.53;;;20.68
78961;BMP280;68362;45.970;12.646;2023-07-13T02:55:31;100968.31;;;20.71
78961;BMP280;68362;45.970;12.646;2023-07-13T02:56:33;100968.91;;;20.63
78961;BMP280;68362;45.970;12.646;2023-07-13T02:57:35;100979.22;;;20.75
78961;BMP280;68362;45.970;12.646;2023-07-13T02:58:37;100986.41;;;20.74
78961;BMP280;68362;45.970;12.646;2023-07-13T02:59:40;100988.59;;;20.72
78961;BMP280;68362;45.970;12.646;2023-07-13T03:00:43;100988.72;;;19.99
78961;BMP280;68362;45.970;12.646;2023-07-13T03:01:48;100986.63;;;19.86
78961;BMP280;68362;45.970;12.646;2023-07-13T03:02:50;100991.09;;;19.95
78961;BMP280;68362;45.970;12.646;2023-07-13T03:03:52;100979.19;;;19.82
78961;BMP280;68362;45.970;12.646;2023-07-13T03:04:55;100981.06;;;19.82
78961;BMP280;68362;45.970;12.646;2023-07-13T03:05:59;100977.34;;;20.22
78961;BMP280;68362;45.970;12.646;2023-07-13T03:07:03;100979.31;;;20.35
78961;BMP280;68362;45.970;12.646;2023-07-13T03:08:05;100969.59;;;20.50
78961;BMP280;68362;45.970;12.646;2023-07-13T03:09:07;100972.69;;;20.57
78961;BMP280;68362;45.970;12.646;2023-07-13T03:10:10;100976.47;;;20.56
78961;BMP280;68362;45.970;12.646;2023-07-13T03:11:17;100987.91;;;20.27
78961;BMP280;68362;45.970;12.646;2023-07-13T03:12:20;100988.59;;;20.09
78961;BMP280;68362;45.970;12.646;2023-07-13T03:13:22;100994.34;;;20.26
78961;BMP280;68362;45.970;12.646;2023-07-13T03:14:25;100988.94;;;20.02
78961;BMP280;68362;45.970;12.646;2023-07-13T03:15:27;100980.78;;;19.83
78961;BMP280;68362;45.970;12.646;2023-07-13T03:16:29;100987.75;;;19.79
78961;BMP280;68362;45.970;12.646;2023-07-13T03:17:31;100982.63;;;19.44
78961;BMP280;68362;45.970;12.646;2023-07-13T03:18:35;100981.34;;;19.31
78961;BMP280;68362;45.970;12.646;2023-07-13T03:19:37;100983.78;;;19.28
78961;BMP280;68362;45.970;12.646;2023-07-13T03:20:39;100984.72;;;19.52
78961;BMP280;68362;45.970;12.646;2023-07-13T03:21:41;100981.97;;;19.72
78961;BMP280;68362;45.970;12.646;2023-07-13T03:22:44;100986.06;;;19.94
78961;BMP280;68362;45.970;12.646;2023-07-13T03:23:47;100988.78;;;19.83
78961;BMP280;68362;45.970;12.646;2023-07-13T03:24:49;100981.91;;;19.77
78961;BMP280;68362;45.970;12.646;2023-07-13T03:26:04;100986.22;;;19.68
78961;BMP280;68362;45.970;12.646;2023-07-13T03:27:07;100981.69;;;19.69
78961;BMP280;68362;45.970;12.646;2023-07-13T03:28:09;100976.44;;;19.59
78961;BMP280;68362;45.970;12.646;2023-07-13T03:29:11;100978.56;;;19.51
78961;BMP280;68362;45.970;12.646;2023-07-13T03:30:13;100979.63;;;19.61
78961;BMP280;68362;45.970;12.646;2023-07-13T03:31:19;100981.22;;;19.57
78961;BMP280;68362;45.970;12.646;2023-07-13T03:32:21;100985.06;;;19.35
78961;BMP280;68362;45.970;12.646;2023-07-13T03:33:24;100984.53;;;19.43
78961;BMP280;68362;45.970;12.646;2023-07-13T03:34:26;100981.88;;;19.33
78961;BMP280;68362;45.970;12.646;2023-07-13T03:35:28;100979.03;;;19.09
78961;BMP280;68362;45.970;12.646;2023-07-13T03:36:31;100980.00;;;19.34
78961;BMP280;68362;45.970;12.646;2023-07-13T03:37:34;100979.03;;;19.09
78961;BMP280;68362;45.970;12.646;2023-07-13T03:38:36;100983.28;;;19.10
78961;BMP280;68362;45.970;12.646;2023-07-13T03:39:38;100988.66;;;19.00
78961;BMP280;68362;45.970;12.646;2023-07-13T03:40:41;100986.00;;;18.95
78961;BMP280;68362;45.970;12.646;2023-07-13T03:41:43;100983.84;;;19.12
78961;BMP280;68362;45.970;12.646;2023-07-13T03:42:45;100981.53;;;19.50
78961;BMP280;68362;45.970;12.646;2023-07-13T03:43:48;100983.50;;;19.29
78961;BMP280;68362;45.970;12.646;2023-07-13T03:44:50;100976.13;;;19.60
78961;BMP280;68362;45.970;12.646;2023-07-13T03:45:54;100977.56;;;19.47
78961;BMP280;68362;45.970;12.646;2023-07-13T03:46:56;100980.06;;;19.18
78961;BMP280;68362;45.970;12.646;2023-07-13T03:47:59;100973.94;;;19.18
78961;BMP280;68362;45.970;12.646;2023-07-13T03:49:01;100981.66;;;19.19
78961;BMP280;68362;45.970;12.646;2023-07-13T03:50:04;100980.31;;;19.22
78961;BMP280;68362;45.970;12.646;2023-07-13T03:51:06;100978.97;;;19.35
78961;BMP280;68362;45.970;12.646;2023-07-13T03:52:08;100987.75;;;19.35
78961;BMP280;68362;45.970;12.646;2023-07-13T03:53:10;100987.44;;;19.42
78961;BMP280;68362;45.970;12.646;2023-07-13T03:54:13;100985.94;;;19.15
78961;BMP280;68362;45.970;12.646;2023-07-13T03:55:15;100994.44;;;19.22
78961;BMP280;68362;45.970;12.646;2023-07-13T03:56:18;100991.25;;;19.26
78961;BMP280;68362;45.970;12.646;2023-07-13T03:57:20;100986.88;;;19.45
78961;BMP280;68362;45.970;12.646;2023-07-13T03:59:25;100985.00;;;19.50
78961;BMP280;68362;45.970;12.646;2023-07-13T04:00:28;100990.59;;;19.44
78961;BMP280;68362;45.970;12.646;2023-07-13T04:01:30;100988.22;;;19.42
78961;BMP280;68362;45.970;12.646;2023-07-13T04:02:32;100990.16;;;19.32
78961;BMP280;68362;45.970;12.646;2023-07-13T04:03:35;100993.13;;;19.10
78961;BMP280;68362;45.970;12.646;2023-07-13T04:04:38;100997.22;;;19.57
78961;BMP280;68362;45.970;12.646;2023-07-13T04:05:42;100991.44;;;19.83
78961;BMP280;68362;45.970;12.646;2023-07-13T04:06:44;100989.75;;;19.98
78961;BMP280;68362;45.970;12.646;2023-07-13T04:07:46;100980.59;;;20.14
78961;BMP280;68362;45.970;12.646;2023-07-13T04:08:51;100988.78;;;20.23
78961;BMP280;68362;45.970;12.646;2023-07-13T04:09:53;100985.00;;;20.29
78961;BMP280;68362;45.970;12.646;2023-07-13T04:10:56;100984.16;;;20.33
78961;BMP280;68362;45.970;12.646;2023-07-13T04:11:58;100984.63;;;20.40
78961;BMP280;68362;45.970;12.646;2023-07-13T04:13:00;100992.88;;;20.39
78961;BMP280;68362;45.970;12.646;2023-07-13T04:14:02;100995.81;;;20.42
78961;BMP280;68362;45.970;12.646;2023-07-13T04:15:04;101010.50;;;20.06
78961;BMP280;68362;45.970;12.646;2023-07-13T04:16:07;101001.69;;;20.05
78961;BMP280;68362;45.970;12.646;2023-07-13T04:17:09;101000.00;;;19.80
78961;BMP280;68362;45.970;12.646;2023-07-13T04:18:11;100997.72;;;20.08
78961;BMP280;68362;45.970;12.646;2023-07-13T04:19:13;101001.25;;;20.27
78961;BMP280;68362;45.970;12.646;2023-07-13T04:20:15;101001.75;;;20.34
78961;BMP280;68362;45.970;12.646;2023-07-13T04:21:18;101001.59;;;20.21
78961;BMP280;68362;45.970;12.646;2023-07-13T04:22:20;101004.75;;;20.28
78961;BMP280;68362;45.970;12.646;2023-07-13T04:23:22;101012.19;;;20.31
78961;BMP280;68362;45.970;12.646;2023-07-13T04:24:24;101003.03;;;20.08
78961;BMP280;68362;45.970;12.646;2023-07-13T04:25:27;101012.31;;;20.16
78961;BMP280;68362;45.970;12.646;2023-07-13T04:26:29;101003.44;;;20.20
78961;BMP280;68362;45.970;12.646;2023-07-13T04:27:32;101005.16;;;20.06
78961;BMP280;68362;45.970;12.646;2023-07-13T04:28:34;101009.16;;;19.69
78961;BMP280;68362;45.970;12.646;2023-07-13T04:29:36;101004.19;;;19.97
78961;BMP280;68362;45.970;12.646;2023-07-13T04:30:38;101008.66;;;20.35
78961;BMP280;68362;45.970;12.646;2023-07-13T04:31:40;101008.28;;;20.52
78961;BMP280;68362;45.970;12.646;2023-07-13T04:32:43;101004.19;;;20.60
78961;BMP280;68362;45.970;12.646;2023-07-13T04:33:45;101011.56;;;20.68
78961;BMP280;68362;45.970;12.646;2023-07-13T04:34:49;101005.56;;;20.81
78961;BMP280;68362;45.970;12.646;2023-07-13T04:35:56;101015.09;;;20.87
78961;BMP280;68362;45.970;12.646;2023-07-13T04:36:59;101014.53;;;20.90
78961;BMP280;68362;45.970;12.646;2023-07-13T04:38:01;101013.97;;;20.93
78961;BMP280;68362;45.970;12.646;2023-07-13T04:39:04;101007.94;;;20.83
78961;BMP280;68362;45.970;12.646;2023-07-13T04:40:06;101012.25;;;20.79
78961;BMP280;68362;45.970;12.646;2023-07-13T04:41:13;101013.09;;;20.74
78961;BMP280;68362;45.970;12.646;2023-07-13T04:42:16;101009.25;;;20.85
78961;BMP280;68362;45.970;12.646;2023-07-13T04:43:18;101007.47;;;20.76
78961;BMP280;68362;45.970;12.646;2023-07-13T04:44:20;101009.19;;;20.37
78961;BMP280;68362;45.970;12.646;2023-07-13T04:45:24;101003.31;;;20.35
78961;BMP280;68362;45.970;12.646;2023-07-13T04:46:26;101007.94;;;20.54
78961;BMP280;68362;45.970;12.646;2023-07-13T04:47:30;101012.84;;;20.47
78961;BMP280;68362;45.970;12.646;2023-07-13T04:48:33;101018.94;;;20.52
78961;BMP280;68362;45.970;12.646;2023-07-13T04:49:35;101013.47;;;20.62
78961;BMP280;68362;45.970;12.646;2023-07-13T04:50:38;101009.06;;;20.77
78961;BMP280;68362;45.970;12.646;2023-07-13T04:51:40;101014.63;;;20.80
78961;BMP280;68362;45.970;12.646;2023-07-13T04:52:42;101027.31;;;20.93
78961;BMP280;68362;45.970;12.646;2023-07-13T04:53:44;101027.75;;;21.00
78961;BMP280;68362;45.970;12.646;2023-07-13T04:54:46;101022.59;;;20.85
78961;BMP280;68362;45.970;12.646;2023-07-13T04:55:48;101034.16;;;20.52
78961;BMP280;68362;45.970;12.646;2023-07-13T04:56:50;101032.88;;;20.73
78961;BMP280;68362;45.970;12.646;2023-07-13T04:57:52;101021.47;;;20.91
78961;BMP280;68362;45.970;12.646;2023-07-13T04:58:55;101026.22;;;20.94
78961;BMP280;68362;45.970;12.646;2023-07-13T04:59:57;101025.00;;;21.11
78961;BMP280;68362;45.970;12.646;2023-07-13T05:01:04;101020.63;;;21.15
78961;BMP280;68362;45.970;12.646;2023-07-13T05:02:07;101008.44;;;21.09
78961;BMP280;68362;45.970;12.646;2023-07-13T05:03:09;101011.00;;;21.19
78961;BMP280;68362;45.970;12.646;2023-07-13T05:04:12;101007.94;;;21.07
78961;BMP280;68362;45.970;12.646;2023-07-13T05:05:14;101011.94;;;20.85
78961;BMP280;68362;45.970;12.646;2023-07-13T05:06:16;101010.22;;;20.94
78961;BMP280;68362;45.970;12.646;2023-07-13T05:07:18;101018.34;;;20.84
78961;BMP280;68362;45.970;12.646;2023-07-13T05:08:20;101015.19;;;20.77
78961;BMP280;68362;45.970;12.646;2023-07-13T05:09:22;101012.91;;;20.36
78961;BMP280;68362;45.970;12.646;2023-07-13T05:10:24;101015.63;;;20.31
78961;BMP280;68362;45.970;12.646;2023-07-13T05:11:27;101018.94;;;20.76
78961;BMP280;68362;45.970;12.646;2023-07-13T05:12:29;101016.91;;;20.92
78961;BMP280;68362;45.970;12.646;2023-07-13T05:13:31;101020.19;;;21.08
78961;BMP280;68362;45.970;12.646;2023-07-13T05:14:34;101015.38;;;21.10
78961;BMP280;68362;45.970;12.646;2023-07-13T05:15:36;101023.28;;;21.20
78961;BMP280;68362;45.970;12.646;2023-07-13T05:16:38;101021.53;;;21.29
78961;BMP280;68362;45.970;12.646;2023-07-13T05:17:40;101023.28;;;21.20
78961;BMP280;68362;45.970;12.646;2023-07-13T05:18:42;101019.84;;;21.38
78961;BMP280;68362;45.970;12.646;2023-07-13T05:19:44;101023.28;;;21.20
78961;BMP280;68362;45.970;12.646;2023-07-13T05:20:46;101026.00;;;20.67
78961;BMP280;68362;45.970;12.646;2023-07-13T05:21:48;101018.06;;;20.57
78961;BMP280;68362;45.970;12.646;2023-07-13T05:22:51;101018.94;;;20.52
78961;BMP280;68362;45.970;12.646;2023-07-13T05:23:53;101023.66;;;20.60
78961;BMP280;68362;45.970;12.646;2023-07-13T05:24:55;101012.25;;;20.79
78961;BMP280;68362;45.970;12.646;2023-07-13T05:25:57;101014.84;;;20.60
78961;BMP280;68362;45.970;12.646;2023-07-13T05:26:59;101011.25;;;20.98
78961;BMP280;68362;45.970;12.646;2023-07-13T05:28:02;101013.97;;;21.17
78961;BMP280;68362;45.970;12.646;2023-07-13T05:29:04;101009.78;;;21.30
78961;BMP280;68362;45.970;12.646;2023-07-13T05:30:06;101008.09;;;21.39
78961;BMP280;68362;45.970;12.646;2023-07-13T05:31:09;101003.81;;;21.38
78961;BMP280;68362;45.970;12.646;2023-07-13T05:32:13;101007.97;;;21.44
78961;BMP280;68362;45.970;12.646;2023-07-13T05:33:16;101008.66;;;21.55
78961;BMP280;68362;45.970;12.646;2023-07-13T05:34:18;101014.53;;;21.57
78961;BMP280;68362;45.970;12.646;2023-07-13T05:35:20;101011.31;;;21.74
78961;BMP280;68362;45.970;12.646;2023-07-13T05:36:22;101017.97;;;21.57
78961;BMP280;68362;45.970;12.646;2023-07-13T05:37:24;101021.16;;;21.78
78961;BMP280;68362;45.970;12.646;2023-07-13T05:38:27;101019.03;;;21.75
78961;BMP280;68362;45.970;12.646;2023-07-13T05:39:29;101018.63;;;21.87
78961;BMP280;68362;45.970;12.646;2023-07-13T05:40:32;101016.09;;;21.96
78961;BMP280;68362;45.970;12.646;2023-07-13T05:41:34;101014.84;;;21.50
78961;BMP280;68362;45.970;12.646;2023-07-13T05:42:36;101024.47;;;21.51
78961;BMP280;68362;45.970;12.646;2023-07-13T05:43:38;101017.97;;;21.57
78961;BMP280;68362;45.970;12.646;2023-07-13T05:44:40;101021.81;;;21.51
78961;BMP280;68362;45.970;12.646;2023-07-13T05:45:42;101016.19;;;21.29
78961;BMP280;68362;45.970;12.646;2023-07-13T05:46:44;101021.19;;;20.93
78961;BMP280;68362;45.970;12.646;2023-07-13T05:47:46;101018.75;;;20.96
78961;BMP280;68362;45.970;12.646;2023-07-13T05:48:49;101015.91;;;20.88
78961;BMP280;68362;45.970;12.646;2023-07-13T05:49:51;101028.50;;;21.06
78961;BMP280;68362;45.970;12.646;2023-07-13T05:50:53;101027.84;;;21.38
78961;BMP280;68362;45.970;12.646;2023-07-13T05:51:55;101029.09;;;21.46
78961;BMP280;68362;45.970;12.646;2023-07-13T05:52:57;101021.97;;;21.60
78961;BMP280;68362;45.970;12.646;2023-07-13T05:54:00;101018.66;;;21.44
78961;BMP280;68362;45.970;12.646;2023-07-13T05:55:02;101018.03;;;21.34
78961;BMP280;68362;45.970;12.646;2023-07-13T05:56:04;101006.28;;;21.53
78961;BMP280;68362;45.970;12.646;2023-07-13T05:57:07;101010.03;;;21.52
78961;BMP280;68362;45.970;12.646;2023-07-13T05:58:10;101006.94;;;21.45
78961;BMP280;68362;45.970;12.646;2023-07-13T05:59:13;101008.06;;;21.77
78961;BMP280;68362;45.970;12.646;2023-07-13T06:00:15;101006.16;;;21.96
78961;BMP280;68362;45.970;12.646;2023-07-13T06:01:18;101009.19;;;22.08
78961;BMP280;68362;45.970;12.646;2023-07-13T06:02:22;101019.50;;;22.15
78961;BMP280;68362;45.970;12.646;2023-07-13T06:03:24;101023.88;;;22.25